Time;durP1;ratioP1;P1;durP2;ratioP2;P2;SDS_P1;SDS_P2;PMS_P1;PMS_P2;Temp;Humidity;BMP_temperature;BMP_pressure;BME280_temperature;BME280_humidity;BME280_pressure;Samples;Min_cycle;Max_cycle;Signal;HPM_P1;HPM_P2
2022/09/20 00:01:17;;;;;;;0.70;0.30;;;10.60;95.90;;;;;;5055448;28;20545;-73
2022/09/20 00:03:46;;;;;;;1.17;0.30;;;10.80;84.60;;;;;;5058570;28;20452;-72
2022/09/20 00:06:16;;;;;;;1.27;0.30;;;10.90;55.90;;;;;;5055996;28;20462;-73
2022/09/20 00:08:44;;;;;;;0.97;0.40;;;11.10;29.80;;;;;;5058272;28;20454;-72
2022/09/20 00:11:14;;;;;;;0.97;0.37;;;11.00;1.60;;;;;;5055540;28;20493;-73
2022/09/20 00:13:42;;;;;;;1.43;0.50;;;10.90;1.30;;;;;;5056999;28;20506;-73
2022/09/20 00:16:11;;;;;;;0.60;0.40;;;11.00;12.90;;;;;;5055125;28;20474;-72
2022/09/20 00:18:38;;;;;;;0.70;0.40;;;11.00;3.40;;;;;;5056663;28;20454;-74
2022/09/20 00:21:05;;;;;;;0.80;0.40;;;10.90;1.00;;;;;;5055285;28;20456;-72
2022/09/20 00:23:35;;;;;;;0.83;0.30;;;10.90;1.00;;;;;;5057607;28;20730;-73
2022/09/20 00:26:03;;;;;;;0.70;0.40;;;10.80;1.00;;;;;;5056187;28;20455;-72
2022/09/20 00:28:32;;;;;;;0.80;0.30;;;10.80;1.00;;;;;;5058320;28;20455;-72
2022/09/20 00:30:59;;;;;;;0.70;0.37;;;10.80;19.50;;;;;;5055101;28;20500;-72
2022/09/20 00:35:06;;;;;;;0.67;0.40;;;10.80;22.20;;;;;;5056434;28;20447;-73
2022/09/20 00:36:13;;;;;;;0.60;0.40;;;10.70;13.50;;;;;;5054017;28;20513;-72
2022/09/20 00:38:41;;;;;;;0.90;0.50;;;10.80;25.30;;;;;;5055611;28;20444;-73
2022/09/20 00:41:08;;;;;;;0.83;0.40;;;10.70;14.80;;;;;;5053524;28;20451;-73
2022/09/20 00:43:38;;;;;;;1.17;0.30;;;10.70;27.10;;;;;;5056542;28;20750;-72
2022/09/20 00:46:06;;;;;;;0.70;0.40;;;10.70;23.20;;;;;;5055914;28;20747;-72
2022/09/20 00:48:34;;;;;;;0.90;0.40;;;10.70;23.00;;;;;;5057106;28;20447;-72
2022/09/20 00:51:07;;;;;;;0.90;0.40;;;10.80;37.80;;;;;;5055481;28;20487;-72
2022/09/20 00:53:38;;;;;;;0.53;0.33;;;10.70;21.90;;;;;;5057379;28;20446;-72
2022/09/20 00:56:10;;;;;;;0.77;0.30;;;10.60;25.40;;;;;;5055865;28;20754;-72
2022/09/20 00:58:42;;;;;;;0.50;0.30;;;10.60;47.20;;;;;;5057288;28;20458;-72
2022/09/20 01:01:09;;;;;;;1.23;0.37;;;10.60;49.10;;;;;;5055005;28;20457;-72
2022/09/20 01:03:38;;;;;;;0.70;0.40;;;10.70;52.60;;;;;;5057599;28;20909;-72
2022/09/20 01:06:08;;;;;;;2.07;0.40;;;10.70;39.10;;;;;;5055670;28;20451;-72
2022/09/20 01:08:36;;;;;;;0.90;0.40;;;10.60;38.70;;;;;;5056922;28;20447;-72
2022/09/20 01:11:03;;;;;;;0.90;0.40;;;10.70;49.80;;;;;;5055277;28;20487;-72
2022/09/20 01:13:31;;;;;;;1.70;0.30;;;10.70;35.10;;;;;;5057431;28;20828;-72
2022/09/20 01:16:00;;;;;;;1.00;0.30;;;10.70;29.50;;;;;;5055729;28;20459;-72
2022/09/20 01:18:30;;;;;;;1.00;0.30;;;10.60;21.80;;;;;;5057712;28;20452;-72
2022/09/20 01:20:58;;;;;;;0.50;0.30;;;10.60;26.20;;;;;;5056469;28;20459;-72
2022/09/20 01:23:38;;;;;;;0.60;0.40;;;10.70;28.40;;;;;;5057578;28;20890;-72
2022/09/20 01:26:28;;;;;;;0.57;0.30;;;10.70;30.80;;;;;;5054927;28;20461;-72
2022/09/20 01:29:05;;;;;;;1.33;0.40;;;10.60;23.00;;;;;;5056949;28;20451;-72
2022/09/20 01:31:34;;;;;;;1.73;0.30;;;10.60;25.60;;;;;;5054982;28;20486;-72
2022/09/20 01:34:08;;;;;;;0.63;0.30;;;10.70;35.40;;;;;;5057336;28;20549;-72
2022/09/20 01:36:49;;;;;;;0.70;0.40;;;10.70;23.40;;;;;;5055043;28;20466;-72
2022/09/20 01:39:24;;;;;;;1.17;0.30;;;10.70;17.80;;;;;;5056542;28;20478;-72
2022/09/20 01:41:55;;;;;;;0.50;0.30;;;10.70;20.50;;;;;;5054877;28;20474;-72
2022/09/20 01:44:35;;;;;;;1.57;0.40;;;10.60;10.50;;;;;;5056517;28;20444;-72
2022/09/20 01:47:10;;;;;;;2.60;0.47;;;10.60;17.10;;;;;;5054666;28;20495;-72
2022/09/20 01:49:48;;;;;;;1.30;0.40;;;10.60;15.40;;;;;;5056608;28;20453;-72
2022/09/20 01:52:42;;;;;;;0.57;0.40;;;10.50;9.20;;;;;;5054904;28;20479;-72
2022/09/20 01:55:51;;;;;;;2.20;0.30;;;10.60;8.90;;;;;;5057356;28;20454;-72
2022/09/20 01:58:44;;;;;;;1.00;0.40;;;10.50;27.40;;;;;;5056957;28;20447;-72
2022/09/20 02:01:41;;;;;;;0.50;0.30;;;10.60;19.10;;;;;;5055685;28;20447;-72
2022/09/20 02:04:39;;;;;;;0.77;0.37;;;10.60;18.50;;;;;;5056751;28;20538;-72
2022/09/20 02:07:37;;;;;;;2.80;0.40;;;10.60;8.40;;;;;;5053748;28;20452;-72
2022/09/20 02:10:27;;;;;;;0.60;0.40;;;10.50;2.60;;;;;;5054694;28;20867;-72
2022/09/20 02:12:55;;;;;;;1.17;0.40;;;10.40;1.00;;;;;;5054194;28;20451;-73
2022/09/20 02:15:41;;;;;;;1.00;0.40;;;10.40;12.90;;;;;;5055319;28;20453;-72
2022/09/20 02:18:21;;;;;;;0.73;0.47;;;10.30;6.70;;;;;;5058905;28;20754;-73
2022/09/20 02:20:54;;;;;;;0.50;0.33;;;10.20;1.00;;;;;;5057480;28;20546;-72
2022/09/20 02:23:35;;;;;;;1.80;0.40;;;10.30;32.40;;;;;;5059699;28;20457;-73
2022/09/20 02:26:17;;;;;;;0.60;0.40;;;10.40;26.00;;;;;;5057729;28;20461;-73
2022/09/20 02:29:00;;;;;;;0.80;0.30;;;10.40;9.60;;;;;;5060470;28;20811;-73
2022/09/20 02:31:38;;;;;;;0.40;0.30;;;10.50;3.90;;;;;;5059384;28;20483;-72
2022/09/20 02:34:50;;;;;;;0.73;0.30;;;10.60;14.30;;;;;;5059757;28;20828;-72
2022/09/20 02:37:45;;;;;;;0.60;0.33;;;10.70;7.70;;;;;;4977931;28;20461;-72
2022/09/20 02:40:24;;;;;;;1.90;0.40;;;10.80;1.00;;;;;;5056694;28;20451;-72
2022/09/20 02:42:58;;;;;;;0.60;0.30;;;10.80;1.00;;;;;;5059323;28;20537;-72
2022/09/20 02:45:32;;;;;;;0.63;0.40;;;10.70;1.00;;;;;;5060791;28;20458;-72
2022/09/20 02:48:03;;;;;;;0.57;0.30;;;10.70;1.20;;;;;;5058552;28;20461;-72
2022/09/20 02:50:40;;;;;;;0.40;0.30;;;10.70;1.00;;;;;;5060307;28;20447;-72
2022/09/20 02:53:18;;;;;;;0.60;0.40;;;10.70;1.00;;;;;;5060085;28;20443;-72
2022/09/20 02:55:54;;;;;;;1.47;0.40;;;10.70;1.00;;;;;;5057526;28;20444;-72
2022/09/20 02:58:35;;;;;;;0.77;0.33;;;10.60;1.00;;;;;;5060733;28;20755;-72
2022/09/20 03:01:09;;;;;;;0.70;0.40;;;10.50;14.60;;;;;;5058671;28;20534;-72
2022/09/20 03:03:46;;;;;;;1.80;0.40;;;10.50;15.10;;;;;;5060755;28;20450;-72
2022/09/20 03:06:23;;;;;;;0.70;0.40;;;10.50;6.10;;;;;;5058133;28;20557;-72
2022/09/20 03:08:58;;;;;;;0.80;0.37;;;10.50;13.70;;;;;;5059743;28;20457;-72
2022/09/20 03:11:31;;;;;;;0.60;0.30;;;10.50;17.80;;;;;;5057091;28;20482;-72
2022/09/20 03:14:11;;;;;;;1.30;0.30;;;10.60;22.30;;;;;;5059461;28;20453;-72
2022/09/20 03:16:50;;;;;;;0.87;0.40;;;10.50;16.80;;;;;;5057400;28;20455;-72
2022/09/20 03:19:32;;;;;;;0.77;0.30;;;10.40;1.00;;;;;;5058752;28;20454;-72
2022/09/20 03:22:09;;;;;;;0.50;0.30;;;10.30;1.00;;;;;;5058401;28;20455;-72
2022/09/20 03:24:47;;;;;;;1.50;0.40;;;10.20;13.40;;;;;;5059112;28;20466;-72
2022/09/20 03:27:22;;;;;;;0.67;0.40;;;10.10;11.50;;;;;;5056228;28;20463;-72
2022/09/20 03:30:01;;;;;;;0.87;0.40;;;10.00;26.20;;;;;;5058541;28;20489;-72
2022/09/20 03:32:44;;;;;;;1.60;0.43;;;10.00;42.50;;;;;;5056955;28;20585;-72
2022/09/20 03:35:25;;;;;;;1.97;0.37;;;10.10;52.90;;;;;;5058975;28;20470;-72
2022/09/20 03:38:09;;;;;;;0.70;0.40;;;10.10;63.30;;;;;;5056922;28;20451;-73
2022/09/20 03:41:09;;;;;;;2.57;0.40;;;10.30;80.70;;;;;;5058499;28;20453;-72
2022/09/20 03:43:55;;;;;;;0.60;0.40;;;10.30;38.40;;;;;;5055810;28;20549;-72
2022/09/20 03:46:27;;;;;;;1.03;0.37;;;10.40;34.50;;;;;;5057165;28;20459;-72
2022/09/20 03:49:25;;;;;;;0.50;0.30;;;10.50;27.20;;;;;;5058866;28;20752;-72
2022/09/20 03:52:02;;;;;;;0.60;0.30;;;10.50;24.20;;;;;;5057335;28;20490;-72
2022/09/20 03:55:16;;;;;;;0.50;0.30;;;10.70;20.80;;;;;;5059332;28;20863;-72
2022/09/20 03:57:57;;;;;;;0.63;0.40;;;10.80;11.50;;;;;;5056384;28;20455;-72
2022/09/20 04:00:30;;;;;;;0.77;0.40;;;10.70;9.10;;;;;;5058958;28;20448;-72
2022/09/20 04:03:17;;;;;;;0.80;0.30;;;10.70;15.30;;;;;;5056426;28;20455;-72
2022/09/20 04:05:53;;;;;;;0.90;0.37;;;10.70;5.20;;;;;;5042403;28;20447;-72
2022/09/20 04:08:37;;;;;;;0.63;0.40;;;10.80;18.90;;;;;;5059387;28;20442;-72
2022/09/20 04:11:15;;;;;;;0.60;0.47;;;10.70;8.50;;;;;;5056557;28;20486;-72
2022/09/20 04:13:50;;;;;;;1.37;0.40;;;10.90;7.60;;;;;;5058733;28;20444;-72
2022/09/20 04:16:32;;;;;;;0.50;0.30;;;11.00;1.00;;;;;;5056704;28;20461;-72
2022/09/20 04:19:03;;;;;;;0.80;0.30;;;11.10;1.00;;;;;;5057444;28;20443;-72
2022/09/20 04:21:35;;;;;;;0.50;0.40;;;11.00;1.00;;;;;;5055303;28;20510;-72
2022/09/20 04:24:10;;;;;;;0.70;0.40;;;10.90;1.00;;;;;;5056577;28;20763;-72
2022/09/20 04:26:44;;;;;;;0.67;0.40;;;11.00;1.00;;;;;;5056975;28;20465;-71
2022/09/20 04:29:25;;;;;;;0.60;0.40;;;10.90;1.00;;;;;;5057868;28;20818;-73
2022/09/20 04:31:59;;;;;;;3.70;0.40;;;10.90;1.00;;;;;;5055298;28;20497;-73
2022/09/20 04:37:26;;;;;;;2.90;0.43;;;10.90;1.00;;;;;;5055378;28;20879;-73
2022/09/20 04:40:03;;;;;;;1.77;0.40;;;11.00;1.00;;;;;;5057551;28;20446;-72
2022/09/20 04:43:06;;;;;;;1.97;0.50;;;11.20;1.40;;;;;;5055964;28;20486;-72
2022/09/20 04:46:02;;;;;;;1.37;0.40;;;11.40;1.00;;;;;;5013612;28;20443;-72
2022/09/20 04:49:15;;;;;;;0.50;0.30;;;11.50;1.00;;;;;;5057303;28;20455;-73
2022/09/20 04:52:14;;;;;;;1.40;0.40;;;11.50;1.00;;;;;;5054188;28;20478;-72
2022/09/20 04:55:13;;;;;;;1.27;0.50;;;11.50;1.00;;;;;;5056903;28;20447;-73
2022/09/20 04:58:04;;;;;;;1.90;0.50;;;11.50;25.50;;;;;;5053811;28;20501;-73
2022/09/20 05:00:48;;;;;;;0.77;0.50;;;11.40;24.80;;;;;;5038316;28;20458;-73
2022/09/20 05:03:47;;;;;;;1.27;0.40;;;11.10;33.00;;;;;;5055968;28;20443;-72
2022/09/20 05:06:33;;;;;;;0.83;0.50;;;11.20;79.80;;;;;;5054272;28;20460;-73
2022/09/20 05:09:37;;;;;;;0.83;0.50;;;11.20;82.00;;;;;;5054565;28;20453;-72
2022/09/20 05:12:36;;;;;;;1.00;0.40;;;11.20;71.30;;;;;;5052693;28;20585;-72
2022/09/20 05:15:21;;;;;;;1.23;0.50;;;11.20;78.70;;;;;;5054132;28;20946;-73
2022/09/20 05:18:09;;;;;;;0.70;0.50;;;11.30;53.30;;;;;;5053593;28;20462;-73
2022/09/20 05:21:10;;;;;;;0.50;0.40;;;11.30;37.90;;;;;;5054887;28;20454;-73
2022/09/20 05:24:10;;;;;;;1.07;0.40;;;11.20;27.10;;;;;;5041762;28;20461;-73
2022/09/20 05:26:50;;;;;;;0.60;0.40;;;11.10;29.80;;;;;;5029476;28;20563;-73
2022/09/20 05:29:24;;;;;;;0.80;0.47;;;11.00;56.70;;;;;;5036997;28;20479;-74
2022/09/20 05:32:01;;;;;;;0.70;0.40;;;10.90;73.60;;;;;;5032976;28;20486;-74
2022/09/20 05:34:35;;;;;;;1.23;0.50;;;10.80;56.50;;;;;;5035924;28;20456;-74
2022/09/20 05:37:10;;;;;;;2.17;0.40;;;10.80;90.00;;;;;;5032414;28;20451;-73
2022/09/20 05:39:42;;;;;;;1.70;0.47;;;10.90;99.90;;;;;;5035689;28;20750;-73
2022/09/20 05:42:18;;;;;;;0.60;0.33;;;10.80;80.20;;;;;;5033134;28;20444;-73
2022/09/20 05:44:57;;;;;;;2.77;0.43;;;11.00;94.30;;;;;;5035530;28;20455;-74
2022/09/20 05:47:35;;;;;;;1.17;0.50;;;11.00;85.50;;;;;;5031377;28;20762;-73
2022/09/20 05:50:19;;;;;;;1.07;0.40;;;10.80;55.50;;;;;;5035296;28;20452;-74
2022/09/20 05:52:56;;;;;;;2.30;0.50;;;10.80;94.20;;;;;;5034838;28;20495;-73
2022/09/20 05:55:51;;;;;;;2.20;0.50;;;11.00;77.40;;;;;;5037843;28;20451;-73
2022/09/20 05:58:44;;;;;;;1.47;0.53;;;11.20;53.00;;;;;;5039202;28;20452;-74
2022/09/20 06:01:18;;;;;;;1.47;0.50;;;11.30;47.50;;;;;;5034047;28;20852;-73
2022/09/20 06:03:54;;;;;;;0.80;0.40;;;11.30;26.60;;;;;;5038327;28;20452;-73
2022/09/20 06:06:27;;;;;;;1.83;0.60;;;11.40;20.10;;;;;;5034190;28;20819;-73
2022/09/20 06:09:05;;;;;;;1.80;0.50;;;11.40;11.10;;;;;;5035900;28;20460;-72
2022/09/20 06:11:53;;;;;;;2.70;0.40;;;11.40;4.40;;;;;;5034276;28;20483;-73
2022/09/20 06:14:33;;;;;;;3.23;0.50;;;11.50;1.00;;;;;;5037193;28;20526;-72
2022/09/20 06:17:11;;;;;;;0.97;0.50;;;11.60;1.00;;;;;;5036521;28;20509;-75
2022/09/20 06:19:46;;;;;;;1.37;0.47;;;11.80;1.00;;;;;;5039308;28;20543;-75
2022/09/20 06:22:18;;;;;;;0.60;0.40;;;11.70;1.00;;;;;;5036674;28;20442;-75
2022/09/20 06:24:51;;;;;;;1.33;0.57;;;11.70;1.00;;;;;;5039671;28;20448;-75
2022/09/20 06:27:24;;;;;;;1.43;0.60;;;11.60;1.00;;;;;;5036320;28;20462;-75
2022/09/20 06:29:55;;;;;;;3.00;0.40;;;11.60;1.00;;;;;;5037466;28;20475;-75
2022/09/20 06:32:22;;;;;;;2.40;0.50;;;11.50;1.00;;;;;;5037930;28;20811;-75
2022/09/20 06:34:51;;;;;;;1.17;0.40;;;11.70;1.00;;;;;;5037131;28;20460;-75
2022/09/20 06:43:21;;;;;;;0.70;0.40;;;11.90;1.00;;;;;;5034919;28;20596;-75
2022/09/20 06:45:48;;;;;;;2.00;0.50;;;11.90;1.00;;;;;;5033265;28;20478;-74
2022/09/20 06:48:15;;;;;;;1.80;0.50;;;11.70;1.00;;;;;;5037672;28;20570;-74
2022/09/20 06:50:44;;;;;;;2.40;0.40;;;11.60;1.00;;;;;;5032507;28;20474;-75
2022/09/20 06:53:16;;;;;;;0.60;0.40;;;11.40;1.00;;;;;;5034789;28;20529;-75
2022/09/20 06:55:43;;;;;;;1.93;0.40;;;11.60;1.00;;;;;;5030614;28;20483;-75
2022/09/20 06:58:11;;;;;;;0.97;0.50;;;11.90;1.00;;;;;;5034419;28;20888;-75
2022/09/20 07:00:39;;;;;;;1.30;0.50;;;11.80;1.00;;;;;;5030894;28;20475;-74
2022/09/20 07:03:05;;;;;;;1.33;0.40;;;11.70;1.00;;;;;;5046805;28;20444;-75
2022/09/20 07:05:32;;;;;;;0.87;0.43;;;11.60;1.00;;;;;;5038983;28;20499;-75
2022/09/20 07:08:04;;;;;;;0.80;0.40;;;11.80;1.00;;;;;;5035850;28;20463;-75
2022/09/20 07:10:31;;;;;;;0.97;0.40;;;11.70;1.00;;;;;;5038598;28;20467;-74
2022/09/20 07:12:59;;;;;;;0.70;0.40;;;11.80;1.00;;;;;;5044673;28;20475;-75
2022/09/20 07:15:27;;;;;;;1.70;0.40;;;11.90;1.00;;;;;;5055779;28;20489;-75
2022/09/20 07:17:54;;;;;;;1.37;0.50;;;11.90;1.00;;;;;;5038685;28;20460;-75
2022/09/20 07:20:21;;;;;;;0.80;0.50;;;11.80;1.00;;;;;;5036440;28;20455;-77
2022/09/20 07:22:48;;;;;;;0.87;0.60;;;11.60;1.00;;;;;;5045181;28;20478;-74
2022/09/20 07:25:17;;;;;;;0.70;0.50;;;11.50;1.00;;;;;;5036283;28;20570;-77
2022/09/20 07:27:45;;;;;;;1.80;0.60;;;11.60;1.00;;;;;;5042215;28;20460;-76
2022/09/20 07:30:15;;;;;;;0.70;0.50;;;11.70;1.00;;;;;;5054587;28;20478;-75
2022/09/20 07:32:42;;;;;;;0.80;0.50;;;11.70;1.00;;;;;;5053441;28;20938;-76
2022/09/20 07:35:12;;;;;;;1.43;0.60;;;11.90;1.00;;;;;;5045917;28;20772;-76
2022/09/20 07:37:42;;;;;;;2.70;0.70;;;12.10;1.00;;;;;;5051391;28;20455;-76
2022/09/20 07:40:10;;;;;;;1.10;0.50;;;12.00;1.00;;;;;;5050905;28;20454;-77
2022/09/20 07:42:39;;;;;;;3.90;0.50;;;12.00;1.00;;;;;;5033687;28;20491;-76
2022/09/20 07:45:07;;;;;;;1.63;0.50;;;12.10;1.00;;;;;;5036928;28;20448;-76
2022/09/20 07:47:34;;;;;;;1.97;0.50;;;12.10;1.00;;;;;;5034640;28;20829;-75
2022/09/20 07:50:02;;;;;;;3.43;0.53;;;12.30;1.00;;;;;;5052266;28;20451;-76
2022/09/20 07:52:29;;;;;;;0.80;0.40;;;12.30;1.00;;;;;;5052818;28;20498;-75
2022/09/20 07:54:56;;;;;;;1.37;0.60;;;12.40;1.00;;;;;;5042225;28;20452;-74
2022/09/20 07:57:24;;;;;;;1.75;0.50;;;12.40;1.00;;;;;;5035641;28;20939;-74
2022/09/20 07:59:53;;;;;;;1.07;0.50;;;12.40;1.00;;;;;;5048802;28;20201;-75
2022/09/20 08:02:20;;;;;;;1.15;0.70;;;12.50;1.00;;;;;;5051608;28;20451;-75
2022/09/20 08:04:48;;;;;;;1.23;0.60;;;12.30;1.00;;;;;;5057110;28;20485;-77
2022/09/20 08:07:15;;;;;;;1.03;0.47;;;12.30;1.00;;;;;;5052854;28;20902;-75
2022/09/20 08:09:42;;;;;;;1.20;0.50;;;12.60;1.00;;;;;;5054731;28;20717;-76
2022/09/20 08:12:09;;;;;;;0.80;0.40;;;12.90;99.90;;;;;;5053513;28;20883;-75
2022/09/20 08:14:36;;;;;;;0.70;0.40;;;12.90;1.00;;;;;;5036012;28;20503;-75
2022/09/20 08:17:04;;;;;;;2.90;0.37;;;13.10;99.90;;;;;;5048987;28;20451;-75
2022/09/20 08:19:31;;;;;;;0.67;0.30;;;13.20;1.00;;;;;;5055485;28;20929;-76
2022/09/20 08:22:00;;;;;;;3.83;0.40;;;13.20;99.90;;;;;;5051944;28;20459;-76
2022/09/20 08:24:27;;;;;;;0.57;0.30;;;13.20;99.90;;;;;;5055092;28;20443;-76
2022/09/20 08:26:54;;;;;;;1.40;0.40;;;13.30;1.00;;;;;;5036723;28;20560;-76
2022/09/20 08:29:21;;;;;;;3.17;0.40;;;13.40;1.00;;;;;;5033332;28;20486;-76
2022/09/20 08:31:47;;;;;;;1.10;0.40;;;13.40;1.00;;;;;;5043104;28;20461;-76
2022/09/20 08:34:16;;;;;;;0.80;0.40;;;13.40;1.00;;;;;;5051459;28;20483;-76
2022/09/20 08:36:46;;;;;;;1.77;0.40;;;13.30;99.90;;;;;;5037976;28;20488;-77
2022/09/20 08:39:14;;;;;;;0.63;0.30;;;13.30;4.00;;;;;;5033888;28;20535;-75
2022/09/20 08:41:44;;;;;;;0.50;0.30;;;13.40;99.90;;;;;;5042596;28;20899;-75
2022/09/20 08:44:16;;;;;;;1.17;0.40;;;13.60;99.90;;;;;;5052611;28;20435;-75
2022/09/20 08:46:50;;;;;;;1.20;0.40;;;13.70;1.00;;;;;;5048834;28;20451;-76
2022/09/20 08:49:25;;;;;;;3.40;1.23;;;13.80;1.00;;;;;;5037996;28;20452;-75
2022/09/20 08:51:53;;;;;;;1.80;0.37;;;14.00;1.00;;;;;;5042815;28;20459;-76
2022/09/20 08:54:23;;;;;;;0.60;0.30;;;14.00;1.00;;;;;;5054280;28;20487;-76
2022/09/20 08:56:50;;;;;;;1.33;0.40;;;14.40;99.90;;;;;;5049779;28;20460;-76
2022/09/20 08:59:19;;;;;;;3.27;0.40;;;14.50;1.00;;;;;;5055775;28;20944;-76
2022/09/20 09:01:49;;;;;;;0.70;0.30;;;14.60;1.00;;;;;;5055178;28;20486;-76
2022/09/20 09:04:22;;;;;;;3.43;0.40;;;14.60;1.00;;;;;;5055652;28;20436;-76
2022/09/20 09:06:52;;;;;;;0.50;0.37;;;14.60;1.00;;;;;;5041987;28;20507;-75
2022/09/20 09:09:23;;;;;;;0.63;0.30;;;14.40;99.90;;;;;;5036487;28;20538;-76
2022/09/20 09:11:50;;;;;;;1.03;0.30;;;14.30;1.00;;;;;;5046621;28;20760;-76
2022/09/20 09:17:11;;;;;;;1.33;0.40;;;14.30;1.00;;;;;;5051804;28;20996;-75
2022/09/20 09:19:47;;;;;;;1.03;0.30;;;14.50;1.00;;;;;;5054370;28;20887;-76
2022/09/20 09:22:20;;;;;;;0.90;0.30;;;14.40;1.00;;;;;;5034154;28;20466;-75
2022/09/20 09:25:20;;;;;;;2.10;0.30;;;14.00;1.00;;;;;;5054810;28;20463;-75
2022/09/20 09:27:53;;;;;;;0.60;0.30;;;13.90;1.00;;;;;;5031210;28;20745;-75
2022/09/20 09:30:23;;;;;;;0.40;0.30;;;13.50;1.00;;;;;;5024237;28;20472;-74
2022/09/20 09:32:50;;;;;;;1.60;0.30;;;13.60;1.00;;;;;;5009211;28;20526;-75
2022/09/20 09:35:30;;;;;;;0.93;0.37;;;13.40;1.00;;;;;;5015089;28;20757;-75
2022/09/20 09:37:59;;;;;;;0.70;0.40;;;13.60;1.00;;;;;;5011110;28;20460;-74
2022/09/20 09:40:27;;;;;;;3.80;0.30;;;14.10;99.90;;;;;;5022740;28;20499;-74
2022/09/20 09:42:56;;;;;;;1.13;0.30;;;14.30;1.00;;;;;;5021993;28;20435;-75
2022/09/20 09:45:30;;;;;;;0.40;0.30;;;14.30;1.00;;;;;;5023581;28;20906;-77
2022/09/20 09:47:58;;;;;;;2.40;0.43;;;14.20;1.00;;;;;;5033464;28;20899;-77
2022/09/20 09:50:29;;;;;;;0.90;0.50;;;14.20;1.00;;;;;;5016136;28;20457;-77
2022/09/20 09:53:10;;;;;;;0.90;0.30;;;14.20;1.00;;;;;;5012714;28;21036;-77
2022/09/20 09:55:57;;;;;;;0.50;0.30;;;14.20;99.90;;;;;;5034526;28;21055;-76
2022/09/20 09:58:43;;;;;;;1.70;0.30;;;14.20;99.90;;;;;;5035652;28;20749;-77
2022/09/20 10:01:21;;;;;;;1.23;0.30;;;14.20;99.90;;;;;;5013685;28;20519;-77
2022/09/20 10:03:56;;;;;;;1.00;0.40;;;14.20;99.90;;;;;;5021583;28;20443;-77
2022/09/20 10:06:30;;;;;;;0.40;0.30;;;14.20;1.00;;;;;;5032823;28;20562;-77
2022/09/20 10:09:32;;;;;;;1.30;0.35;;;14.40;99.90;;;;;;5026782;28;20461;-78
2022/09/20 10:12:20;;;;;;;5.07;0.40;;;14.60;99.90;;;;;;5011754;28;20208;-76
2022/09/20 10:15:03;;;;;;;0.50;0.30;;;14.60;99.90;;;;;;5027137;28;20476;-77
2022/09/20 10:17:42;;;;;;;0.40;0.30;;;14.80;99.90;;;;;;5032283;28;20452;-77
2022/09/20 10:20:26;;;;;;;0.70;0.30;;;15.00;99.90;;;;;;5016053;28;20475;-77
2022/09/20 10:23:06;;;;;;;2.50;0.30;;;14.90;96.20;;;;;;5015020;28;20453;-79
2022/09/20 10:25:42;;;;;;;0.43;0.20;;;15.00;99.90;;;;;;5016219;28;20923;-77
2022/09/20 10:28:22;;;;;;;1.97;0.30;;;15.00;29.20;;;;;;5014086;28;20474;-77
2022/09/20 10:30:57;;;;;;;0.70;0.30;;;14.90;99.90;;;;;;5026793;28;20548;-77
2022/09/20 10:33:33;;;;;;;0.80;0.30;;;15.00;99.90;;;;;;5045401;28;20547;-75
2022/09/20 10:36:12;;;;;;;1.00;0.33;;;15.10;96.00;;;;;;5031536;28;20537;-77
2022/09/20 10:38:48;;;;;;;0.53;0.20;;;15.40;99.90;;;;;;5038654;28;20454;-76
2022/09/20 10:44:37;;;;;;;1.80;0.30;;;16.30;1.00;;;;;;5036266;28;20412;-77
2022/09/20 10:47:13;;;;;;;1.20;0.30;;;16.40;1.00;;;;;;5035497;28;20448;-77
2022/09/20 10:49:46;;;;;;;1.50;0.30;;;16.20;1.00;;;;;;5037215;28;20462;-77
2022/09/20 10:52:39;;;;;;;0.50;0.30;;;16.00;1.00;;;;;;5032640;28;20460;-77
2022/09/20 10:55:30;;;;;;;1.30;0.20;;;16.10;1.00;;;;;;5034099;28;20444;-77
2022/09/20 10:58:25;;;;;;;0.50;0.23;;;15.90;1.00;;;;;;5034565;28;20502;-76
2022/09/20 11:01:01;;;;;;;1.43;0.30;;;15.80;1.00;;;;;;5048388;28;20458;-76
2022/09/20 11:03:49;;;;;;;0.50;0.23;;;15.70;1.00;;;;;;5055615;28;20447;-76
2022/09/20 11:06:24;;;;;;;1.73;0.20;;;15.70;1.00;;;;;;5056824;28;20458;-75
2022/09/20 11:08:57;;;;;;;0.63;0.20;;;15.50;1.00;;;;;;5055549;28;20459;-75
2022/09/20 11:11:31;;;;;;;2.57;0.30;;;15.50;1.00;;;;;;5054645;28;20883;-75
2022/09/20 11:14:04;;;;;;;1.20;0.30;;;15.50;1.00;;;;;;5056981;28;20509;-75
2022/09/20 11:16:38;;;;;;;0.97;0.33;;;15.40;1.00;;;;;;5054726;28;20553;-76
2022/09/20 11:19:14;;;;;;;0.63;0.40;;;15.60;1.00;;;;;;5055170;28;20759;-76
2022/09/20 11:21:46;;;;;;;1.90;0.30;;;15.80;1.00;;;;;;5052128;28;20533;-76
2022/09/20 11:24:22;;;;;;;0.67;0.30;;;16.10;1.00;;;;;;5056517;28;20875;-76
2022/09/20 11:26:52;;;;;;;3.73;0.40;;;16.40;1.00;;;;;;5052015;28;20458;-76
2022/09/20 11:29:26;;;;;;;1.20;0.40;;;16.60;1.00;;;;;;5054502;28;20486;-76
2022/09/20 11:31:57;;;;;;;0.40;0.30;;;17.20;1.00;;;;;;5052444;28;20556;-76
2022/09/20 11:34:30;;;;;;;0.67;0.30;;;17.60;1.00;;;;;;5057035;28;20578;-75
2022/09/20 11:37:00;;;;;;;0.73;0.30;;;17.80;1.00;;;;;;5054123;28;20918;-75
2022/09/20 11:39:34;;;;;;;1.17;0.30;;;17.70;1.00;;;;;;5056305;28;20462;-75
2022/09/20 11:42:04;;;;;;;0.40;0.20;;;17.80;1.00;;;;;;5052742;28;20455;-75
2022/09/20 11:44:31;;;;;;;0.57;0.27;;;17.80;1.00;;;;;;5057636;28;20470;-75
2022/09/20 11:47:03;;;;;;;0.50;0.27;;;17.60;1.00;;;;;;5056964;28;20551;-74
2022/09/20 11:49:38;;;;;;;2.00;0.30;;;17.20;1.00;;;;;;5054767;28;20590;-75
2022/09/20 11:52:21;;;;;;;0.67;0.30;;;16.70;1.00;;;;;;5058001;28;20478;-76
2022/09/20 11:55:22;;;;;;;0.40;0.20;;;16.50;1.00;;;;;;5057459;28;20475;-75
2022/09/20 11:58:01;;;;;;;0.83;0.40;;;16.50;1.00;;;;;;5053998;28;20950;-75
2022/09/20 12:00:31;;;;;;;2.73;0.40;;;16.50;1.00;;;;;;5056973;28;20469;-76
2022/09/20 12:02:59;;;;;;;2.10;0.40;;;16.60;1.00;;;;;;5052931;28;20860;-75
2022/09/20 12:05:32;;;;;;;0.70;0.40;;;16.40;1.00;;;;;;5057264;28;20434;-74
2022/09/20 12:08:02;;;;;;;0.40;0.20;;;16.40;1.00;;;;;;5051894;28;20459;-73
2022/09/20 12:10:32;;;;;;;0.60;0.30;;;16.20;1.00;;;;;;5054050;28;20443;-73
2022/09/20 12:13:03;;;;;;;1.07;0.30;;;16.10;1.00;;;;;;5052560;28;20459;-73
2022/09/20 12:15:32;;;;;;;1.30;0.30;;;16.20;1.00;;;;;;5057528;28;20504;-74
2022/09/20 12:18:26;;;;;;;0.90;0.33;;;16.50;1.00;;;;;;5055671;28;20504;-74
2022/09/20 12:21:11;;;;;;;0.60;0.20;;;16.60;1.00;;;;;;5057045;28;20599;-74
2022/09/20 12:24:16;;;;;;;0.80;0.20;;;16.80;1.00;;;;;;5052595;28;20761;-74
2022/09/20 12:26:44;;;;;;;0.50;0.20;;;16.90;1.00;;;;;;5056459;28;20542;-75
2022/09/20 12:29:53;;;;;;;1.13;0.27;;;16.80;1.00;;;;;;5048779;28;20466;-74
2022/09/20 12:32:42;;;;;;;0.97;0.30;;;17.10;1.00;;;;;;5057677;28;20475;-75
2022/09/20 12:35:55;;;;;;;0.57;0.30;;;17.30;1.00;;;;;;5056393;28;20945;-75
2022/09/20 12:38:51;;;;;;;1.43;0.30;;;17.40;1.00;;;;;;5054511;28;20801;-75
2022/09/20 12:41:21;;;;;;;1.33;0.37;;;17.40;1.00;;;;;;5011465;28;20809;-75
2022/09/20 12:44:04;;;;;;;0.40;0.30;;;17.50;1.00;;;;;;5057042;28;20886;-75
2022/09/20 12:46:38;;;;;;;2.77;0.30;;;17.10;1.00;;;;;;5057145;28;20450;-75
2022/09/20 12:52:55;;;;;;;0.50;0.30;;;17.20;1.00;;;;;;5055864;28;20581;-75
2022/09/20 12:55:40;;;;;;;0.50;0.30;;;17.10;1.00;;;;;;5056579;28;20918;-75
2022/09/20 12:58:25;;;;;;;0.50;0.27;;;17.10;1.00;;;;;;5053066;28;20517;-75
2022/09/20 13:01:31;;;;;;;1.63;0.30;;;17.30;1.00;;;;;;5055831;28;21083;-75
2022/09/20 13:04:35;;;;;;;3.07;0.30;;;17.20;1.00;;;;;;5053143;28;20478;-75
2022/09/20 13:07:33;;;;;;;0.90;0.30;;;17.20;1.00;;;;;;5056556;28;20450;-75
2022/09/20 13:10:05;;;;;;;0.40;0.20;;;17.20;1.00;;;;;;5053061;28;20483;-75
2022/09/20 13:12:38;;;;;;;0.87;0.20;;;17.10;1.00;;;;;;5055817;28;20509;-75
2022/09/20 13:15:08;;;;;;;1.07;0.20;;;17.20;1.00;;;;;;5051880;28;20497;-75
2022/09/20 13:17:36;;;;;;;0.63;0.30;;;17.20;1.00;;;;;;5043911;28;20547;-75
2022/09/20 13:20:14;;;;;;;4.53;0.30;;;17.30;1.00;;;;;;5038554;28;20538;-75
2022/09/20 13:22:44;;;;;;;0.80;0.50;;;17.30;1.00;;;;;;5039376;28;20460;-76
2022/09/20 13:25:14;;;;;;;1.00;0.50;;;17.30;1.00;;;;;;5051244;28;20903;-76
2022/09/20 13:27:47;;;;;;;1.50;0.60;;;17.40;1.00;;;;;;5051377;28;20538;-77
2022/09/20 13:30:18;;;;;;;0.60;0.30;;;17.50;1.00;;;;;;5052895;28;20470;-77
2022/09/20 13:32:47;;;;;;;0.97;0.40;;;17.30;1.00;;;;;;5037396;28;20468;-76
2022/09/20 13:35:17;;;;;;;0.70;0.40;;;17.10;1.00;;;;;;5033477;28;20586;-78
2022/09/20 13:37:52;;;;;;;0.73;0.50;;;17.10;1.00;;;;;;5036599;28;20464;-78
2022/09/20 13:40:22;;;;;;;0.80;0.30;;;17.20;1.00;;;;;;5034867;28;21065;-78
2022/09/20 13:42:50;;;;;;;0.40;0.30;;;17.40;1.00;;;;;;5039832;28;20456;-77
2022/09/20 13:45:20;;;;;;;0.93;0.30;;;17.10;1.00;;;;;;5046766;28;20930;-77
2022/09/20 13:47:51;;;;;;;1.47;0.40;;;16.90;1.00;;;;;;5047482;28;20835;-79
2022/09/20 13:50:22;;;;;;;6.87;0.60;;;16.70;1.00;;;;;;5031226;28;20471;-77
2022/09/20 13:52:52;;;;;;;0.73;0.30;;;16.90;1.00;;;;;;5038034;28;20948;-77
2022/09/20 13:55:37;;;;;;;0.87;0.30;;;16.70;1.00;;;;;;5032109;28;20919;-77
2022/09/20 13:58:07;;;;;;;0.50;0.30;;;16.20;1.00;;;;;;5035579;28;20452;-77
2022/09/20 14:00:37;;;;;;;0.60;0.30;;;16.20;1.00;;;;;;5032851;28;20779;-77